createdAt,value
2024-03-12T00:03:04.555Z,13.85
2024-03-12T00:06:46.591Z,13.25
2024-03-12T00:10:28.911Z,14.10
2024-03-12T00:14:10.729Z,13.60
2024-03-12T00:17:54.903Z,13.35
2024-03-12T00:21:38.345Z,13.15
2024-03-12T00:25:22.120Z,12.98
2024-03-12T00:29:05.889Z,13.68
2024-03-12T00:32:48.721Z,12.98
2024-03-12T00:36:30.616Z,12.02
2024-03-12T00:40:12.944Z,12.00
2024-03-12T00:43:55.370Z,13.70
2024-03-12T00:47:38.076Z,12.52
2024-03-12T00:51:19.959Z,13.30
2024-03-12T00:55:05.258Z,13.63
2024-03-12T00:58:47.413Z,12.88
2024-03-12T01:02:32.261Z,13.50
2024-03-12T01:06:14.410Z,13.15
2024-03-12T01:09:56.882Z,12.38
2024-03-12T01:13:40.552Z,12.80
2024-03-12T01:17:24.896Z,13.65
2024-03-12T01:21:09.294Z,12.25
2024-03-12T01:24:52.956Z,12.55
2024-03-12T01:28:36.153Z,12.35
2024-03-12T01:32:19.783Z,12.70
2024-03-12T01:36:19.886Z,12.90
2024-03-12T01:40:11.126Z,12.32
2024-03-12T01:44:00.511Z,12.00
2024-03-12T01:47:42.669Z,13.27
2024-03-12T01:51:24.646Z,12.30
2024-03-12T01:55:06.760Z,11.70
2024-03-12T01:58:48.668Z,12.32
2024-03-12T02:02:30.489Z,11.50
2024-03-12T02:06:12.318Z,11.43
2024-03-12T02:09:54.188Z,11.20
2024-03-12T02:13:36.025Z,10.35
2024-03-12T02:17:17.848Z,10.63
2024-03-12T02:20:59.889Z,10.27
2024-03-12T02:24:41.906Z,11.00
2024-03-12T02:28:23.697Z,10.27
2024-03-12T02:32:05.625Z,11.90
2024-03-12T02:35:47.456Z,12.88
2024-03-12T02:39:31.403Z,12.30
2024-03-12T02:43:14.699Z,10.50
2024-03-12T02:46:56.441Z,10.50
2024-03-12T02:50:38.216Z,10.32
2024-03-12T02:54:22.031Z,10.18
2024-03-12T02:58:05.648Z,8.82
2024-03-12T03:01:47.555Z,8.15
2024-03-12T03:05:29.654Z,8.90
2024-03-12T03:09:11.838Z,6.85
2024-03-12T03:12:53.739Z,7.10
2024-03-12T03:16:35.785Z,8.45
2024-03-12T03:20:17.636Z,7.63
2024-03-12T03:23:59.813Z,7.90
2024-03-12T03:27:41.663Z,7.65
2024-03-12T03:31:23.493Z,8.15
2024-03-12T03:35:05.701Z,9.10
2024-03-12T03:38:47.503Z,8.95
2024-03-12T03:42:29.376Z,8.95
2024-03-12T03:46:11.236Z,9.05
2024-03-12T03:49:53.883Z,8.95
2024-03-12T03:53:35.720Z,9.32
2024-03-12T03:57:17.716Z,8.70
2024-03-12T04:01:01.597Z,9.20
2024-03-12T04:04:44.382Z,7.13
2024-03-12T04:08:26.175Z,7.93
2024-03-12T04:12:08.241Z,6.80
2024-03-12T04:15:50.090Z,7.05
2024-03-12T04:19:34.340Z,6.03
2024-03-12T04:23:16.182Z,5.10
2024-03-12T04:26:58.010Z,5.70
2024-03-12T04:30:40.643Z,5.93
2024-03-12T04:34:22.621Z,4.75
2024-03-12T04:38:04.689Z,5.38
2024-03-12T04:41:46.872Z,5.30
2024-03-12T04:45:29.317Z,5.97
2024-03-12T04:49:11.483Z,5.10
2024-03-12T04:52:53.378Z,4.38
2024-03-12T04:56:35.233Z,4.53
2024-03-12T05:00:20.760Z,4.30
2024-03-12T05:04:08.434Z,3.80
2024-03-12T05:07:57.226Z,3.60
2024-03-12T05:11:39.261Z,3.45
2024-03-12T05:15:24.021Z,3.65
2024-03-12T05:19:06.066Z,2.80
2024-03-12T05:22:48.254Z,3.03
2024-03-12T05:26:30.471Z,2.78
2024-03-12T05:30:16.292Z,2.60
2024-03-12T05:34:03.087Z,2.00
2024-03-12T05:38:05.036Z,2.35
2024-03-12T05:42:10.952Z,2.22
2024-03-12T05:46:12.158Z,2.33
2024-03-12T05:49:54.008Z,1.80
2024-03-12T05:53:38.216Z,1.92
2024-03-12T05:57:20.217Z,1.65
2024-03-12T06:01:03.719Z,1.35
2024-03-12T06:04:45.566Z,1.30
2024-03-12T06:08:27.372Z,0.90
2024-03-12T06:12:09.558Z,0.75
2024-03-12T06:15:51.673Z,0.80
2024-03-12T06:19:33.527Z,0.82
2024-03-12T06:23:15.599Z,0.63
2024-03-12T06:26:57.578Z,0.63
2024-03-12T06:30:40.076Z,1.02
2024-03-12T06:34:22.534Z,0.90
2024-03-12T06:38:07.599Z,0.90
2024-03-12T06:41:49.565Z,1.20
2024-03-12T06:45:32.699Z,1.20
2024-03-12T06:49:15.421Z,0.90
2024-03-12T06:52:57.408Z,1.30
2024-03-12T06:56:44.076Z,1.00
2024-03-12T07:00:39.072Z,0.80
2024-03-12T07:04:26.404Z,0.90
2024-03-12T07:08:08.407Z,1.10
2024-03-12T07:11:50.292Z,1.00
2024-03-12T07:15:33.189Z,1.55
2024-03-12T07:19:16.627Z,1.20
2024-03-12T07:22:59.828Z,1.10
2024-03-12T07:26:41.721Z,1.25
2024-03-12T07:30:25.771Z,1.50
2024-03-12T07:34:07.827Z,1.10
2024-03-12T07:37:49.806Z,1.65
2024-03-12T07:41:31.673Z,1.48
2024-03-12T07:45:17.693Z,1.58
2024-03-12T07:48:59.527Z,1.27
2024-03-12T07:52:41.600Z,0.90
2024-03-12T07:56:24.913Z,1.00
2024-03-12T08:00:12.618Z,1.05
2024-03-12T08:03:54.701Z,0.93
2024-03-12T08:07:36.572Z,1.40
2024-03-12T08:11:20.346Z,1.00
2024-03-12T08:15:02.653Z,1.20
2024-03-12T08:18:44.640Z,1.02
2024-03-12T08:22:26.709Z,0.80
2024-03-12T08:26:08.651Z,1.15
2024-03-12T08:29:51.849Z,0.70
2024-03-12T08:33:33.804Z,1.02
2024-03-12T08:37:15.743Z,0.82
2024-03-12T08:40:57.630Z,1.13
2024-03-12T08:44:39.979Z,0.88
2024-03-12T08:48:22.703Z,0.80
2024-03-12T08:52:05.917Z,0.90
2024-03-12T08:55:47.764Z,0.85
2024-03-12T08:59:30.546Z,0.82
2024-03-12T09:03:12.417Z,1.13
2024-03-12T09:06:54.561Z,0.60
2024-03-12T09:10:37.955Z,0.60
2024-03-12T09:14:20.969Z,0.70
2024-03-12T09:18:06.149Z,0.80
2024-03-12T09:21:48.939Z,0.60
2024-03-12T09:25:34.156Z,0.63
2024-03-12T09:29:16.032Z,0.80
2024-03-12T09:32:57.942Z,0.60
2024-03-12T09:36:40.834Z,0.73
2024-03-12T09:40:23.207Z,0.82
2024-03-12T09:44:07.666Z,0.70
2024-03-12T09:47:50.097Z,1.00
2024-03-12T09:51:33.023Z,0.80
2024-03-12T09:55:17.754Z,0.80
2024-03-12T09:59:00.426Z,0.70
2024-03-12T10:02:42.913Z,0.73
2024-03-12T10:06:26.620Z,0.85
2024-03-12T10:10:10.511Z,0.80
2024-03-12T10:13:57.121Z,0.57
2024-03-12T10:17:40.848Z,0.50
2024-03-12T10:21:25.484Z,0.77
2024-03-12T10:25:11.829Z,0.80
2024-03-12T10:28:55.135Z,0.70
2024-03-12T10:32:37.088Z,0.80
2024-03-12T10:36:34.931Z,0.90
2024-03-12T10:40:17.925Z,0.63
2024-03-12T10:44:08.789Z,1.08
2024-03-12T10:47:52.039Z,0.68
2024-03-12T10:51:34.002Z,0.88
2024-03-12T10:55:22.378Z,0.90
2024-03-12T10:59:05.851Z,0.82
2024-03-12T11:02:57.244Z,0.90
2024-03-12T11:06:40.935Z,1.15
2024-03-12T11:10:23.584Z,0.80
2024-03-12T11:14:08.798Z,1.05
2024-03-12T11:17:51.618Z,1.10
2024-03-12T11:21:36.196Z,1.92
2024-03-12T11:25:28.338Z,1.40
2024-03-12T11:29:12.259Z,1.50
2024-03-12T11:32:54.111Z,1.52
2024-03-12T11:36:44.362Z,1.65
2024-03-12T11:44:10.578Z,1.42
2024-03-12T11:47:56.713Z,1.50
2024-03-12T11:51:58.932Z,1.60
2024-03-12T11:56:08.941Z,1.40
2024-03-12T11:59:52.274Z,1.67
2024-03-12T12:03:35.945Z,1.40
2024-03-12T12:07:18.979Z,1.50
2024-03-12T12:11:10.837Z,1.70
2024-03-12T12:14:55.562Z,1.60
2024-03-12T12:18:38.705Z,1.90
2024-03-12T12:22:22.924Z,1.52
2024-03-12T12:26:08.112Z,1.50
2024-03-12T12:29:50.091Z,1.38
2024-03-12T12:33:39.547Z,1.23
2024-03-12T12:37:23.104Z,1.13
2024-03-12T12:41:07.681Z,1.65
2024-03-12T12:44:54.961Z,1.25
2024-03-12T12:48:37.195Z,1.15
2024-03-12T12:52:20.889Z,1.40
2024-03-12T12:56:03.113Z,1.20
2024-03-12T12:59:44.946Z,1.58
2024-03-12T13:03:26.936Z,1.63
2024-03-12T13:07:09.321Z,1.20
2024-03-12T13:11:10.099Z,1.38
2024-03-12T13:14:53.648Z,1.60
2024-03-12T13:18:36.406Z,1.30
2024-03-12T13:22:22.898Z,0.90
2024-03-12T13:26:05.494Z,0.90
2024-03-12T13:29:47.466Z,0.80
2024-03-12T13:33:29.400Z,1.27
2024-03-12T13:37:14.028Z,0.95
2024-03-12T13:40:57.030Z,1.00
2024-03-12T13:44:39.052Z,0.90
2024-03-12T13:48:20.897Z,0.95
2024-03-12T13:52:02.892Z,0.93
2024-03-12T13:55:44.711Z,0.60
2024-03-12T13:59:26.644Z,1.05
2024-03-12T14:03:11.514Z,0.70
2024-03-12T14:06:53.851Z,1.00
2024-03-12T14:10:38.264Z,1.05
2024-03-12T14:14:20.730Z,1.08
2024-03-12T14:18:02.602Z,0.80
2024-03-12T14:21:44.529Z,1.00
2024-03-12T14:25:26.435Z,0.80
2024-03-12T14:29:11.784Z,0.55
2024-03-12T14:32:55.165Z,0.50
2024-03-12T14:36:37.052Z,0.70
2024-03-12T14:40:18.935Z,0.65
2024-03-12T14:44:00.815Z,0.88
2024-03-12T14:47:42.745Z,0.80
2024-03-12T14:51:24.809Z,0.82
2024-03-12T14:55:07.435Z,0.98
2024-03-12T14:58:49.259Z,0.95
2024-03-12T15:02:31.064Z,0.80
2024-03-12T15:06:13.561Z,1.35
2024-03-12T15:09:55.633Z,1.00
2024-03-12T15:13:37.544Z,0.90
2024-03-12T15:17:19.464Z,1.00
2024-03-12T15:21:01.845Z,1.02
2024-03-12T15:24:45.085Z,0.80
2024-03-12T15:28:27.775Z,0.95
2024-03-12T15:32:11.630Z,1.75
2024-03-12T15:35:53.827Z,2.22
2024-03-12T15:39:35.686Z,0.90
2024-03-12T15:43:18.964Z,1.05
2024-03-12T15:47:00.746Z,1.40
2024-03-12T15:50:42.620Z,1.02
2024-03-12T15:54:26.221Z,1.23
2024-03-12T15:58:08.251Z,1.30
2024-03-12T16:01:50.466Z,1.98
2024-03-12T16:05:32.570Z,0.93
2024-03-12T16:09:17.913Z,1.30
2024-03-12T16:13:00.139Z,1.20
2024-03-12T16:16:42.279Z,6.28
2024-03-12T16:20:24.336Z,1.20
2024-03-12T16:24:06.797Z,0.70
2024-03-12T16:27:48.712Z,0.60
2024-03-12T16:31:30.505Z,0.68
2024-03-12T16:35:12.610Z,0.60
2024-03-12T16:38:54.697Z,0.60
2024-03-12T16:42:40.050Z,0.73
2024-03-12T16:46:22.187Z,0.60
2024-03-12T16:50:09.445Z,0.60
2024-03-12T16:53:52.024Z,0.68
2024-03-12T16:57:37.194Z,0.80
2024-03-12T17:01:21.094Z,0.80
2024-03-12T17:05:03.652Z,0.73
2024-03-12T17:08:45.845Z,0.77
2024-03-12T17:12:28.961Z,0.77
2024-03-12T17:16:13.691Z,0.50
2024-03-12T17:19:55.865Z,0.75
2024-03-12T17:23:37.931Z,0.55
2024-03-12T17:27:21.885Z,0.90
2024-03-12T17:31:06.614Z,0.90
2024-03-12T17:34:49.081Z,1.13
2024-03-12T17:38:32.715Z,1.48
2024-03-12T17:42:16.740Z,0.90
2024-03-12T17:45:58.910Z,1.15
2024-03-12T17:49:43.054Z,0.70
2024-03-12T17:53:26.930Z,0.88
2024-03-12T17:57:14.827Z,1.20
2024-03-12T18:00:57.663Z,0.95
2024-03-12T18:04:41.274Z,1.10
2024-03-12T18:08:27.246Z,1.15
2024-03-12T18:12:10.805Z,1.10
2024-03-12T18:15:53.156Z,1.25
2024-03-12T18:19:35.625Z,1.58
2024-03-12T18:23:17.992Z,1.00
2024-03-12T18:27:00.273Z,1.38
2024-03-12T18:30:42.298Z,1.65
2024-03-12T18:34:24.753Z,1.30
2024-03-12T18:38:06.969Z,1.20
2024-03-12T18:41:58.600Z,1.40
2024-03-12T18:45:42.628Z,1.48
2024-03-12T18:49:28.845Z,1.75
2024-03-12T18:53:10.948Z,1.67
2024-03-12T18:56:53.258Z,1.55
2024-03-12T19:00:36.770Z,1.58
2024-03-12T19:04:19.812Z,2.10
2024-03-12T19:08:01.928Z,2.00
2024-03-12T19:11:44.450Z,2.20
2024-03-12T19:15:34.264Z,1.52
2024-03-12T19:19:24.338Z,1.42
2024-03-12T19:26:49.108Z,1.67
2024-03-12T19:30:31.211Z,1.30
2024-03-12T19:34:17.087Z,1.50
2024-03-12T19:37:59.702Z,2.10
2024-03-12T19:41:45.619Z,1.83
2024-03-12T19:45:28.822Z,2.20
2024-03-12T19:49:10.963Z,2.42
2024-03-12T19:52:54.319Z,2.65
2024-03-12T19:56:36.235Z,4.00
2024-03-12T20:00:22.269Z,2.20
2024-03-12T20:04:05.185Z,1.77
2024-03-12T20:07:48.711Z,1.75
2024-03-12T20:11:32.284Z,2.10
2024-03-12T20:15:14.414Z,1.70
2024-03-12T20:18:56.416Z,1.50
2024-03-12T20:22:38.480Z,1.60
2024-03-12T20:26:22.442Z,1.98
2024-03-12T20:30:06.591Z,1.30
2024-03-12T20:33:48.447Z,1.55
2024-03-12T20:37:30.256Z,1.55
2024-03-12T20:41:14.888Z,1.73
2024-03-12T20:44:56.737Z,2.63
2024-03-12T20:48:40.742Z,2.15
2024-03-12T20:52:22.628Z,1.30
2024-03-12T20:56:05.684Z,3.03
2024-03-12T20:59:48.671Z,1.38
2024-03-12T21:03:34.448Z,1.42
2024-03-12T21:07:16.530Z,1.40
2024-03-12T21:10:59.082Z,1.20
2024-03-12T21:14:41.406Z,1.30
2024-03-12T21:18:23.172Z,1.48
2024-03-12T21:22:08.367Z,1.92
2024-03-12T21:25:50.273Z,2.42
2024-03-12T21:29:32.357Z,2.47
2024-03-12T21:33:14.960Z,2.50
2024-03-12T21:36:58.160Z,2.75
2024-03-12T21:40:40.009Z,2.97
2024-03-12T21:44:22.185Z,2.38
2024-03-12T21:48:10.266Z,2.15
2024-03-12T21:51:54.600Z,1.90
2024-03-12T21:55:43.218Z,2.20
2024-03-12T21:59:25.308Z,2.13
2024-03-12T22:03:08.689Z,2.28
2024-03-12T22:06:51.043Z,2.03
2024-03-12T22:10:33.287Z,1.90
2024-03-12T22:14:15.986Z,2.30
2024-03-12T22:18:31.068Z,2.25
2024-03-12T22:22:45.844Z,2.20
2024-03-12T22:26:27.752Z,2.17
2024-03-12T22:30:10.498Z,2.35
2024-03-12T22:33:52.485Z,2.00
2024-03-12T22:37:36.037Z,2.25
2024-03-12T22:41:18.337Z,2.42
2024-03-12T22:45:02.768Z,2.22
2024-03-12T22:48:44.914Z,2.10
2024-03-12T22:52:27.632Z,2.20
2024-03-12T22:56:15.204Z,2.15
2024-03-12T22:59:58.768Z,2.40
2024-03-12T23:03:41.426Z,2.65
2024-03-12T23:07:23.524Z,2.20
2024-03-12T23:11:06.095Z,2.67
2024-03-12T23:14:50.007Z,2.10
2024-03-12T23:18:31.895Z,1.98
2024-03-12T23:22:14.813Z,1.80
2024-03-12T23:25:56.620Z,2.10
2024-03-12T23:29:38.577Z,2.05
2024-03-12T23:33:20.640Z,1.75
2024-03-12T23:37:04.519Z,2.42
2024-03-12T23:40:46.413Z,1.90
2024-03-12T23:44:36.010Z,1.60
2024-03-12T23:48:18.081Z,1.80
2024-03-12T23:51:59.898Z,2.05
2024-03-12T23:55:43.499Z,1.80
2024-03-12T23:59:25.300Z,1.88
